createdAt,value
2019-03-24T19:49:11.128Z,30.42
2019-03-24T19:49:16.306Z,30.42
2019-03-24T19:49:21.488Z,30.42
2019-03-24T19:49:26.663Z,30.42
2019-03-24T19:49:31.847Z,30.42
2019-03-24T19:49:37.034Z,30.42
2019-03-24T19:49:42.306Z,30.42
2019-03-24T19:49:47.501Z,30.42
2019-03-24T19:49:52.694Z,30.42
2019-03-24T19:49:57.889Z,30.42
2019-03-24T19:50:03.070Z,30.42
2019-03-24T19:50:08.261Z,30.32
2019-03-24T19:50:13.464Z,30.42
2019-03-24T19:50:18.653Z,30.32
2019-03-24T19:50:23.853Z,30.32
2019-03-24T19:50:29.044Z,30.31
2019-03-24T19:50:34.318Z,30.31
2019-03-24T19:50:39.511Z,30.31
2019-03-24T19:50:44.708Z,30.31
2019-03-24T19:50:49.900Z,30.21
2019-03-24T19:50:55.102Z,30.21
2019-03-24T19:51:00.300Z,30.21
2019-03-24T19:51:07.187Z,30.21
2019-03-24T19:51:12.491Z,30.21
2019-03-24T19:51:17.727Z,30.21
2019-03-24T19:51:22.924Z,30.31
2019-03-24T19:51:28.210Z,30.31
2019-03-24T19:51:33.398Z,30.21
2019-03-24T19:51:38.603Z,30.21
2019-03-24T19:51:43.796Z,30.21
2019-03-24T19:51:48.988Z,30.31
2019-03-24T19:51:54.195Z,30.31
2019-03-24T19:51:59.392Z,30.31
2019-03-24T19:52:04.588Z,30.21
2019-03-24T19:52:09.794Z,30.21
2019-03-24T19:52:14.987Z,30.21
2019-03-24T19:52:20.258Z,30.21
2019-03-24T19:52:25.458Z,30.21
2019-03-24T19:52:30.659Z,30.21
2019-03-24T19:52:44.288Z,30.21
2019-03-24T19:52:47.064Z,30.21
2019-03-24T19:52:52.262Z,30.21
2019-03-24T19:52:57.462Z,30.21
2019-03-24T19:53:02.664Z,30.21
2019-03-24T19:53:07.866Z,30.21
2019-03-24T19:53:13.064Z,30.21
2019-03-24T19:53:18.262Z,30.21
2019-03-24T19:53:23.458Z,30.21
2019-03-24T19:53:28.660Z,30.21
2019-03-24T19:53:33.856Z,30.11
2019-03-24T19:53:39.046Z,30.11
2019-03-24T19:53:44.230Z,30.11
2019-03-24T19:53:49.444Z,30.11
2019-03-24T19:53:54.638Z,30.11
2019-03-24T19:53:59.832Z,30.11
2019-03-24T19:54:05.024Z,30.11
2019-03-24T19:54:10.220Z,30.11
2019-03-24T19:54:15.464Z,30.11
2019-03-24T19:54:20.668Z,30.11
2019-03-24T19:54:25.866Z,30.11
2019-03-24T19:54:31.062Z,30.11
2019-03-24T19:54:36.260Z,30.10
2019-03-24T19:54:41.480Z,30.11
2019-03-24T19:54:46.674Z,30.21
2019-03-24T19:54:51.915Z,30.10
2019-03-24T19:54:57.114Z,30.19
2019-03-24T19:55:02.320Z,30.19
2019-03-24T19:55:07.516Z,30.19
2019-03-24T19:55:12.712Z,30.19
2019-03-24T19:55:17.902Z,30.19
2019-03-24T19:55:23.086Z,30.19
2019-03-24T19:55:28.284Z,30.19
2019-03-24T19:55:33.476Z,30.10
2019-03-24T19:55:38.680Z,30.10
2019-03-24T19:55:43.884Z,30.19
2019-03-24T19:55:49.089Z,30.10
2019-03-24T19:55:54.291Z,30.10
2019-03-24T19:55:59.495Z,30.10
2019-03-24T19:56:04.690Z,30.19
2019-03-24T19:56:09.889Z,30.10
2019-03-24T19:56:15.084Z,30.10
2019-03-24T19:56:20.282Z,30.10
2019-03-24T19:56:25.484Z,30.10
2019-03-24T19:56:30.720Z,30.19
2019-03-24T19:56:35.913Z,30.19
2019-03-24T19:56:41.117Z,30.19
2019-03-24T19:56:46.330Z,30.19
2019-03-24T19:56:51.533Z,30.19
2019-03-24T19:56:56.757Z,30.19
2019-03-24T19:57:01.952Z,30.19
2019-03-24T19:57:07.210Z,30.19
2019-03-24T19:57:12.404Z,30.19
2019-03-24T19:57:17.598Z,30.19
2019-03-24T19:57:22.786Z,30.19
2019-03-24T19:57:27.990Z,30.19
2019-03-24T19:57:33.188Z,30.19
2019-03-24T19:57:38.374Z,30.19
2019-03-24T19:57:43.572Z,30.19
2019-03-24T19:57:48.770Z,30.19
2019-03-24T19:57:53.993Z,30.19
2019-03-24T19:57:59.190Z,30.19
2019-03-24T19:58:04.400Z,30.19
2019-03-24T19:58:09.602Z,30.19
2019-03-24T19:58:14.806Z,30.19
2019-03-24T19:58:19.996Z,30.19
2019-03-24T19:58:25.192Z,30.19
2019-03-24T19:58:30.381Z,30.29
2019-03-24T19:58:35.576Z,30.19
2019-03-24T19:58:40.808Z,30.19
2019-03-24T19:58:45.998Z,30.19
2019-03-24T19:58:51.198Z,30.19
2019-03-24T19:58:56.398Z,30.19
2019-03-24T19:59:01.609Z,30.19
2019-03-24T19:59:06.804Z,30.19
2019-03-24T19:59:12.018Z,30.19
2019-03-24T19:59:17.228Z,30.19
2019-03-24T19:59:22.436Z,30.19
2019-03-24T19:59:27.676Z,30.19
2019-03-24T19:59:32.870Z,30.19
2019-03-24T19:59:38.076Z,30.19
2019-03-24T19:59:43.271Z,30.19
2019-03-24T19:59:48.464Z,30.19
2019-03-24T19:59:53.665Z,30.10
2019-03-24T19:59:58.860Z,30.10
2019-03-24T20:00:04.056Z,30.10
2019-03-24T20:00:09.266Z,30.19
2019-03-24T20:00:14.462Z,30.19
2019-03-24T20:00:19.663Z,30.19
2019-03-24T20:00:24.852Z,30.19
2019-03-24T20:00:30.095Z,30.19
2019-03-24T20:00:35.297Z,30.19
2019-03-24T20:00:40.501Z,30.19
2019-03-24T20:00:45.696Z,30.19
2019-03-24T20:00:50.890Z,30.19
2019-03-24T20:00:56.082Z,30.19
2019-03-24T20:01:01.278Z,30.19
2019-03-24T20:01:06.472Z,30.19
2019-03-24T20:01:11.667Z,30.19
2019-03-24T20:01:16.860Z,30.19
2019-03-24T20:01:22.070Z,30.19
2019-03-24T20:01:27.257Z,30.10
2019-03-24T20:01:32.452Z,30.19
2019-03-24T20:01:37.649Z,30.19
2019-03-24T20:01:42.843Z,30.19
2019-03-24T20:01:48.041Z,30.19
2019-03-24T20:01:53.239Z,30.19
2019-03-24T20:01:58.464Z,30.19
2019-03-24T20:02:03.680Z,30.19
2019-03-24T20:02:08.878Z,30.19
2019-03-24T20:02:14.070Z,30.29
2019-03-24T20:02:19.264Z,30.19
2019-03-24T20:02:24.456Z,30.19
2019-03-24T20:02:29.646Z,30.19
2019-03-24T20:02:34.848Z,30.19
2019-03-24T20:02:40.034Z,30.19
2019-03-24T20:02:45.222Z,30.10
2019-03-24T20:02:50.432Z,30.10
2019-03-24T20:02:55.623Z,30.19
2019-03-24T20:03:00.823Z,30.19
2019-03-24T20:03:06.017Z,30.19
2019-03-24T20:03:11.212Z,30.19
2019-03-24T20:03:16.417Z,30.19
2019-03-24T20:03:21.613Z,30.19
2019-03-24T20:03:26.816Z,30.19
2019-03-24T20:03:32.035Z,30.19
2019-03-24T20:03:37.226Z,30.10
2019-03-24T20:03:43.493Z,30.10
